Last 24 Hours

Ukiah-SE (Ruddick)

Hourly Data | America/Los_Angeles
as of 9/3/26 12:59 PM PDT
Date & Time Temp (°F) Canopy Temp (°F) RH (%) Dew Pt (°F) Wet Bulb (°F) Wind Dir (°) Wind Spd (mph) Wind Gust (mph) Solar Rad (W/m2) Leaf Wet (mins) Latest Rain (In) Precip 24Hr (In) Daily Rain (In) Daily Min Temp (°F) Daily Max Temp (°F) Daily Max CanT (°F) Daily Leaf Wet (Hrs) Daily ETo (in)
9/3/26 - 1200 63.5 6.5 84 58.7 61.9 N | 360 4.3 8.6 396 39.3 0.01 0.08 0.08 57.0 65.2 26.2 6.8 0.021
9/3/26 - 1100 61.9 -6.3 90 59.1 61.8 SSW | 208 4.9 11.7 133 44.1 0.01 0.07 0.07 57.0 62.4 26.2 6.2 0.011
9/3/26 - 1000 60.1 3.8 94 58.5 60.7 SSE | 167 6.4 12.5 128 59.9 0.00 0.06 0.06 57.0 61.4 26.2 5.4 0.008
9/3/26 - 0900 58.5 23.4 96 57.5 59.4 SSE | 168 6.3 10.7 84 59.9 0.00 0.06 0.06 57.0 60.8 26.2 4.4 0.005
9/3/26 - 0800 57.3 20.6 96 56.3 58.1 SSE | 166 6.0 10.6 23 31.6 0.04 0.06 0.06 57.0 60.8 26.2 3.4 0.003
9/3/26 - 0700 57.2 11.0 95 55.8 57.7 SSE | 158 5.9 10.5 1 39.8 0.01 0.03 0.02 57.0 60.8 26.2 2.9 0.002
9/3/26 - 0600 57.3 -15.7 94 55.6 57.6 SE | 146 3.5 9.7 0 58.4 0.00 0.02 0.01 57.1 60.8 12.0 2.3 0.002
9/3/26 - 0500 57.3 -52.4 94 55.5 57.5 SSE | 153 4.1 7.8 0 59.4 0.01 0.08 0.01 57.1 60.8 -30.8 1.3 0.002
9/3/26 - 0400 59.3 - 81 53.4 56.8 S | 173 5.6 10.7 0 17.8 0.00 0.07 0.00 57.7 60.8 - 0.3 0.002
9/3/26 - 0300 60.3 - 74 51.9 56.2 S | 171 5.1 9.0 0 0.0 0.00 0.07 0.00 60.0 60.8 - 0.0 0.002
9/3/26 - 0200 60.6 - 70 50.8 55.7 SSE | 161 4.6 8.5 0 0.0 0.00 0.07 0.00 60.5 60.8 - 0.0 0.001
9/3/26 - 0100 61.0 - 69 50.6 55.7 SSE | 155 4.1 8.0 0 0.0 0.00 0.07 0.07 55.1 75.2 21.3 4.2 0.128
9/3/26 - 0000 61.5 - 68 50.8 56.0 S | 170 2.1 6.8 0 0.0 0.00 0.07 0.07 55.1 75.2 21.3 4.2 0.127
9/2/26 - 2300 61.5 - 66 50.0 55.5 S | 185 3.6 8.0 0 0.0 0.00 0.07 0.07 55.1 75.2 21.3 4.2 0.127
9/2/26 - 2200 61.9 - 62 49.0 55.1 S | 188 5.0 9.9 0 0.0 0.00 0.07 0.07 55.1 75.2 21.3 4.2 0.126
9/2/26 - 2100 63.0 - 60 48.8 55.3 S | 188 5.0 9.9 0 0.0 0.00 0.08 0.07 55.1 75.2 21.3 4.2 0.125
9/2/26 - 2000 64.7 - 55 48.1 55.5 SSW | 192 5.6 11.8 12 0.0 0.00 0.08 0.07 55.1 75.2 21.3 4.2 0.123
9/2/26 - 1900 67.5 - 49 47.6 56.2 SSW | 202 6.5 12.4 103 0.0 0.00 0.08 0.07 55.1 75.2 21.3 4.2 0.122
9/2/26 - 1800 69.5 - 45 47.4 56.6 SSW | 210 7.1 13.7 150 0.0 0.00 0.08 0.07 55.1 75.2 21.3 4.2 0.117
9/2/26 - 1700 71.6 - 42 47.3 57.2 SW | 224 8.1 15.2 292 0.0 0.00 0.08 0.07 55.1 75.2 21.3 4.2 0.110
9/2/26 - 1600 74.2 - 40 48.6 58.6 SW | 228 7.1 14.2 686 0.0 0.00 0.08 0.07 55.1 75.2 21.3 4.2 0.099
9/2/26 - 1500 73.0 - 44 49.7 58.9 SW | 220 6.8 12.9 620 0.0 0.00 0.08 0.07 55.1 73.6 21.3 4.2 0.079
9/2/26 - 1400 70.9 - 50 51.1 59.1 S | 173 4.7 13.3 462 0.0 0.00 0.08 0.07 55.1 72.9 21.3 4.2 0.061
9/2/26 - 1300 69.7 - 56 53.4 60.2 SSE | 168 5.0 10.5 624 0.0 0.00 0.08 0.07 55.1 71.1 21.3 4.2 0.048
9/2/26 - 1200 67.4 - 64 54.6 60.2 SSE | 165 4.7 10.4 661 0.0 0.00 0.08 0.07 55.1 69.1 21.3 4.2 0.032
Max 74.2 23.4 96 59.1 61.9 - 8.1 15.2 686 59.9 0.04 0.08 0.08 60.5 75.2 26.2 6.8 0.128
Avg 63.6 -1.1 69 52.4 57.7 - 5.3 10.7 175 16.4 0.00 0.07 - - - - - -
Min 57.2 -52.4 40 47.3 55.1 - 2.1 6.8 0 0.0 0.00 0.02 0.00 55.1 60.8 -30.8 0.0 0.001
Total - - - - - - - - - - 0.08 - - - - - - -